Pays
Station

 

Conditions  météo  pour  Nueva Ocotepeque  -  Honduras    Honduras

  
29 °C
    
 
 

METAR pour Nueva Ocotepeque :

MHSC 161958Z AUTO 34011G20KT 9999 OVC060 29/19 A3001 RMK AO2 SLP123 T02940188 $

 

Voici le bulletin pour Nueva Ocotepeque - Honduras.
 
Le bulletin a été fait il y a 6 minutes, à 19:58 UTC .
Le vent soufflait à la vitesse de 5.7 mètres par seconde avec des rafales jusqu'à 10.3 mètres par seconde de Nord/Nord-ouest (340°).
 
La température était de 29 °C, avec un point de rosée à 19 °C.
La température ressentie était de 30 °C.
 
La pression atmosphérique était de 1016 hPa.
L'humidité relative était de 54.9%.
 
Le ciel était nuageux à partir d'une hauteur de 1829 mètres
 
La visibilité globale était de supérieure à 10 kilomètres.
 

 
 
 

Pays :   A   B   C   D   E   F   G   H   I   J   K   L   M   N   O   P   Q   R   S   T   U   V   W   Y   Z

 

Partenaires :  Info Météo avec Met'info
Météo Marine avec MeteoMarine.net
Infos Site  |  Infos Légales  |  Crédits  |  Confidentialité
Contactez-nous  |  Ajouter aux favoris
© 2013-2018 METAR - Tous droits réservés